createdAt,value
2018-08-11T00:00:53.521Z,19.50
2018-08-11T00:03:22.845Z,19.50
2018-08-11T00:05:51.082Z,19.50
2018-08-11T00:08:19.325Z,19.50
2018-08-11T00:10:47.594Z,19.50
2018-08-11T00:13:15.837Z,19.40
2018-08-11T00:15:44.091Z,19.40
2018-08-11T00:18:13.180Z,19.20
2018-08-11T00:20:41.417Z,19.10
2018-08-11T00:23:09.652Z,19.20
2018-08-11T00:25:37.932Z,19.20
2018-08-11T00:28:06.178Z,19.20
2018-08-11T00:30:35.212Z,19.20
2018-08-11T00:33:03.461Z,19.10
2018-08-11T00:35:32.467Z,19.00
2018-08-11T00:38:00.727Z,19.00
2018-08-11T00:40:29.733Z,18.90
2018-08-11T00:42:58.000Z,18.90
2018-08-11T00:45:26.998Z,18.70
2018-08-11T00:47:55.248Z,18.70
2018-08-11T00:50:23.516Z,18.70
2018-08-11T00:52:51.751Z,18.80
2018-08-11T00:55:19.986Z,18.70
2018-08-11T00:57:49.010Z,18.80
2018-08-11T01:00:17.253Z,18.70
2018-08-11T01:02:46.274Z,18.80
2018-08-11T01:05:14.507Z,18.70
2018-08-11T01:07:43.535Z,18.80
2018-08-11T01:10:12.035Z,18.80
2018-08-11T01:12:40.272Z,18.90
2018-08-11T01:15:08.517Z,18.90
2018-08-11T01:17:36.769Z,18.90
2018-08-11T01:20:05.010Z,18.90
2018-08-11T01:22:33.315Z,18.80
2018-08-11T01:25:01.589Z,18.80
2018-08-11T01:27:29.805Z,18.70
2018-08-11T01:29:58.995Z,18.70
2018-08-11T01:32:27.222Z,18.70
2018-08-11T01:34:56.602Z,18.80
2018-08-11T01:37:24.851Z,18.70
2018-08-11T01:39:53.856Z,18.60
2018-08-11T01:42:22.862Z,18.60
2018-08-11T01:44:51.112Z,18.50
2018-08-11T01:47:20.114Z,18.50
2018-08-11T01:49:49.132Z,18.50
2018-08-11T01:52:17.468Z,18.50
2018-08-11T01:54:45.661Z,18.70
2018-08-11T01:57:13.931Z,18.70
2018-08-11T01:59:42.957Z,18.60
2018-08-11T02:02:11.197Z,18.60
2018-08-11T02:04:40.202Z,18.40
2018-08-11T02:07:08.560Z,18.40
2018-08-11T02:09:36.770Z,18.30
2018-08-11T02:12:05.005Z,18.20
2018-08-11T02:14:34.043Z,18.30
2018-08-11T02:17:02.281Z,18.30
2018-08-11T02:19:30.578Z,18.20
2018-08-11T02:21:58.822Z,18.20
2018-08-11T02:24:27.084Z,18.20
2018-08-11T02:26:55.419Z,18.30
2018-08-11T02:29:23.664Z,18.20
2018-08-11T02:31:51.922Z,18.20
2018-08-11T02:34:20.284Z,18.20
2018-08-11T02:36:48.438Z,18.20
2018-08-11T02:39:17.462Z,18.30
2018-08-11T02:41:45.717Z,18.30
2018-08-11T02:44:15.014Z,18.30
2018-08-11T02:46:44.026Z,18.30
2018-08-11T02:49:12.271Z,18.30
2018-08-11T02:51:41.302Z,18.30
2018-08-11T02:54:09.564Z,18.30
2018-08-11T02:56:37.846Z,18.30
2018-08-11T02:59:06.505Z,18.40
2018-08-11T03:01:35.519Z,18.50
2018-08-11T03:04:03.784Z,18.50
2018-08-11T03:06:32.193Z,18.50
2018-08-11T03:09:00.505Z,18.60
2018-08-11T03:11:28.771Z,18.70
2018-08-11T03:13:57.106Z,18.70
2018-08-11T03:16:25.326Z,18.70
2018-08-11T03:18:53.597Z,18.70
2018-08-11T03:21:21.865Z,18.60
2018-08-11T03:23:50.115Z,18.60
2018-08-11T03:26:18.455Z,18.60
2018-08-11T03:28:47.487Z,18.70
2018-08-11T03:31:15.736Z,18.70
2018-08-11T03:33:44.034Z,18.70
2018-08-11T03:36:12.274Z,18.80
2018-08-11T03:38:41.532Z,18.90
2018-08-11T03:41:09.778Z,18.90
2018-08-11T03:43:38.027Z,19.00
2018-08-11T03:46:07.146Z,19.00
2018-08-11T03:48:35.318Z,19.00
2018-08-11T03:51:03.601Z,19.10
2018-08-11T03:53:31.883Z,19.10
2018-08-11T03:56:00.135Z,19.10
2018-08-11T03:58:28.489Z,19.20
2018-08-11T04:00:57.827Z,19.30
2018-08-11T04:03:26.758Z,19.30
2018-08-11T04:05:55.010Z,19.30
2018-08-11T04:08:23.475Z,19.30
2018-08-11T04:10:51.757Z,19.40
2018-08-11T04:13:20.015Z,19.30
2018-08-11T04:15:48.270Z,19.30
2018-08-11T04:18:16.544Z,19.30
2018-08-11T04:20:45.563Z,19.50
2018-08-11T04:23:13.821Z,19.40
2018-08-11T04:25:42.083Z,19.50
2018-08-11T04:28:10.350Z,19.50
2018-08-11T04:30:39.386Z,19.50
2018-08-11T04:33:07.643Z,19.50
2018-08-11T04:35:35.909Z,19.50
2018-08-11T04:38:05.321Z,19.40
2018-08-11T04:40:33.598Z,19.40
2018-08-11T04:43:01.876Z,19.40
2018-08-11T04:45:30.458Z,19.40
2018-08-11T04:47:58.700Z,19.40
2018-08-11T04:50:27.713Z,19.40
2018-08-11T04:52:55.972Z,19.40
2018-08-11T04:55:24.993Z,19.30
2018-08-11T04:57:54.458Z,19.30
2018-08-11T05:00:23.495Z,19.40
2018-08-11T05:02:51.753Z,19.40
2018-08-11T05:05:20.712Z,19.50
2018-08-11T05:07:49.706Z,19.40
2018-08-11T05:10:18.250Z,19.50
2018-08-11T05:12:46.535Z,19.50
2018-08-11T05:15:16.010Z,19.50
2018-08-11T05:17:44.901Z,19.40
2018-08-11T05:20:13.167Z,19.40
2018-08-11T05:22:41.426Z,19.40
2018-08-11T05:25:09.694Z,19.50
2018-08-11T05:27:38.735Z,19.60
2018-08-11T05:30:07.033Z,19.60
2018-08-11T05:32:36.381Z,19.80
2018-08-11T05:35:06.798Z,19.80
2018-08-11T05:37:35.075Z,20.00
2018-08-11T05:40:03.344Z,20.20
2018-08-11T05:42:32.450Z,20.30
2018-08-11T05:45:00.997Z,20.30
2018-08-11T05:47:29.213Z,20.30
2018-08-11T05:49:57.502Z,20.30
2018-08-11T05:52:25.832Z,20.30
2018-08-11T05:54:54.107Z,20.30
2018-08-11T05:57:23.164Z,20.40
2018-08-11T05:59:51.461Z,20.40
2018-08-11T06:02:19.746Z,20.60
2018-08-11T06:04:47.998Z,20.70
2018-08-11T06:07:16.272Z,20.70
2018-08-11T06:09:44.546Z,20.80
2018-08-11T06:12:12.795Z,20.90
2018-08-11T06:14:41.046Z,20.80
2018-08-11T06:17:09.303Z,20.80
2018-08-11T06:19:38.485Z,20.70
2018-08-11T06:22:07.003Z,20.70
2018-08-11T06:24:35.263Z,20.90
2018-08-11T06:27:04.306Z,20.90
2018-08-11T06:29:32.569Z,20.90
2018-08-11T06:32:00.821Z,21.00
2018-08-11T06:34:29.849Z,21.20
2018-08-11T06:36:58.144Z,21.20
2018-08-11T06:39:26.650Z,21.10
2018-08-11T06:41:55.670Z,21.00
2018-08-11T06:44:23.933Z,21.00
2018-08-11T06:46:52.263Z,21.20
2018-08-11T06:49:20.484Z,21.20
2018-08-11T06:51:48.730Z,21.30
2018-08-11T06:54:17.749Z,21.60
2018-08-11T06:56:46.042Z,21.60
2018-08-11T06:59:14.303Z,21.60
2018-08-11T07:01:42.588Z,21.60
2018-08-11T07:04:10.820Z,21.60
2018-08-11T07:06:39.205Z,21.60
2018-08-11T07:09:07.448Z,21.60
2018-08-11T07:11:35.709Z,21.80
2018-08-11T07:14:04.019Z,22.10
2018-08-11T07:16:32.791Z,22.30
2018-08-11T07:19:01.025Z,22.20
2018-08-11T07:21:29.411Z,22.00
2018-08-11T07:23:57.548Z,21.80
2018-08-11T07:26:26.634Z,21.80
2018-08-11T07:28:54.886Z,21.80
2018-08-11T07:31:23.118Z,22.10
2018-08-11T07:33:51.437Z,22.20
2018-08-11T07:36:19.803Z,22.40
2018-08-11T07:38:47.987Z,22.40
2018-08-11T07:41:16.236Z,22.30
2018-08-11T07:43:44.493Z,22.40
2018-08-11T07:46:12.836Z,22.40
2018-08-11T07:48:41.088Z,22.60
2018-08-11T07:51:09.382Z,22.70
2018-08-11T07:53:37.699Z,22.60
2018-08-11T07:56:06.009Z,22.70
2018-08-11T07:58:34.449Z,22.80
2018-08-11T08:01:02.740Z,23.00
2018-08-11T08:03:30.997Z,23.20
2018-08-11T08:05:59.267Z,23.40
2018-08-11T08:08:27.506Z,23.40
2018-08-11T08:10:55.761Z,23.50
2018-08-11T08:13:24.037Z,23.60
2018-08-11T08:15:52.293Z,23.80
2018-08-11T08:18:20.570Z,23.60
2018-08-11T08:20:48.828Z,23.70
2018-08-11T08:23:17.081Z,23.90
2018-08-11T08:25:46.122Z,24.00
2018-08-11T08:28:14.394Z,24.00
2018-08-11T08:30:42.990Z,23.80
2018-08-11T08:33:11.285Z,23.90
2018-08-11T08:35:39.531Z,24.00
2018-08-11T08:38:07.815Z,24.00
2018-08-11T08:40:36.083Z,23.90
2018-08-11T08:43:04.406Z,23.80
2018-08-11T08:45:33.458Z,23.50
2018-08-11T08:48:01.697Z,23.40
2018-08-11T08:50:29.966Z,23.30
2018-08-11T08:52:58.498Z,23.40
2018-08-11T08:55:26.754Z,23.40
2018-08-11T08:57:55.054Z,23.10
2018-08-11T09:00:23.321Z,23.30
2018-08-11T09:02:51.576Z,23.60
2018-08-11T09:05:19.878Z,23.70
2018-08-11T09:07:48.122Z,23.90
2018-08-11T09:10:16.418Z,24.20
2018-08-11T09:12:44.680Z,24.20
2018-08-11T09:15:12.931Z,24.20
2018-08-11T09:17:41.220Z,23.90
2018-08-11T09:20:09.458Z,24.00
2018-08-11T09:25:13.178Z,24.50
2018-08-11T09:27:41.434Z,24.60
2018-08-11T09:30:09.697Z,24.60
2018-08-11T09:32:37.976Z,24.60
2018-08-11T09:35:06.240Z,24.70
2018-08-11T09:37:34.530Z,24.60
2018-08-11T09:40:02.810Z,24.60
2018-08-11T09:42:31.050Z,24.70
2018-08-11T09:44:59.323Z,24.60
2018-08-11T09:47:27.566Z,24.40
2018-08-11T09:49:55.839Z,24.40
2018-08-11T09:52:24.242Z,24.40
2018-08-11T09:54:52.690Z,24.40
2018-08-11T09:57:21.863Z,24.50
2018-08-11T09:59:50.881Z,24.00
2018-08-11T10:02:19.138Z,24.00
2018-08-11T10:04:48.515Z,24.40
2018-08-11T10:07:16.781Z,24.40
2018-08-11T10:09:45.031Z,24.30
2018-08-11T10:12:13.306Z,24.30
2018-08-11T10:14:41.716Z,24.40
2018-08-11T10:17:09.963Z,24.60
2018-08-11T10:19:38.231Z,24.40
2018-08-11T10:22:06.503Z,24.30
2018-08-11T10:24:34.966Z,24.40
2018-08-11T10:27:03.230Z,24.50
2018-08-11T10:29:32.292Z,24.00
2018-08-11T10:32:00.533Z,24.00
2018-08-11T10:34:28.901Z,24.40
2018-08-11T10:36:57.156Z,24.50
2018-08-11T10:39:25.457Z,24.20
2018-08-11T10:41:53.981Z,24.30
2018-08-11T10:44:22.234Z,24.20
2018-08-11T10:46:50.486Z,24.20
2018-08-11T10:49:18.776Z,24.30
2018-08-11T10:51:47.061Z,24.50
2018-08-11T10:54:15.310Z,24.40
2018-08-11T10:56:43.575Z,24.50
2018-08-11T10:59:11.897Z,24.50
2018-08-11T11:01:40.169Z,24.60
2018-08-11T11:04:08.424Z,24.70
2018-08-11T11:06:36.676Z,24.90
2018-08-11T11:09:04.930Z,24.70
2018-08-11T11:11:33.212Z,24.80
2018-08-11T11:16:36.917Z,25.30
2018-08-11T11:19:05.995Z,25.40
2018-08-11T11:21:34.318Z,25.40
2018-08-11T11:24:02.717Z,25.60
2018-08-11T11:26:30.968Z,25.70
2018-08-11T11:28:59.249Z,25.50
2018-08-11T11:31:27.523Z,25.50
2018-08-11T11:33:55.821Z,25.40
2018-08-11T11:36:24.208Z,25.50
2018-08-11T11:38:52.470Z,25.60
2018-08-11T11:41:20.743Z,25.90
2018-08-11T11:43:48.999Z,26.10
2018-08-11T11:46:17.322Z,26.30
2018-08-11T11:48:45.618Z,26.30
2018-08-11T11:51:13.915Z,26.40
2018-08-11T11:53:42.934Z,26.60
2018-08-11T11:56:11.198Z,26.50
2018-08-11T11:58:39.442Z,26.70
2018-08-11T12:01:08.488Z,26.50
2018-08-11T12:03:36.750Z,26.50
2018-08-11T12:06:05.066Z,26.20
2018-08-11T12:08:34.105Z,26.10
2018-08-11T12:11:03.117Z,25.90
2018-08-11T12:13:31.396Z,25.90
2018-08-11T12:16:00.790Z,25.90
2018-08-11T12:18:29.058Z,25.90
2018-08-11T12:20:57.304Z,25.80
2018-08-11T12:23:26.493Z,25.90
2018-08-11T12:25:55.502Z,26.10
2018-08-11T12:28:23.813Z,26.10
2018-08-11T12:30:52.211Z,26.20
2018-08-11T12:33:20.465Z,26.50
2018-08-11T12:35:48.718Z,26.70
2018-08-11T12:38:17.017Z,26.90
2018-08-11T12:40:45.290Z,26.70
2018-08-11T12:43:13.778Z,26.70
2018-08-11T12:45:42.043Z,26.80
2018-08-11T12:48:10.291Z,26.80
2018-08-11T12:50:38.587Z,26.60
2018-08-11T12:53:06.839Z,26.60
2018-08-11T12:55:35.122Z,26.90
2018-08-11T12:58:03.393Z,27.10
2018-08-11T13:00:31.679Z,27.00
2018-08-11T13:02:59.927Z,27.10
2018-08-11T13:05:28.979Z,27.60
2018-08-11T13:07:57.236Z,27.50
2018-08-11T13:10:25.485Z,27.60
2018-08-11T13:12:53.912Z,27.60
2018-08-11T13:15:22.155Z,27.30
2018-08-11T13:17:50.485Z,27.40
2018-08-11T13:20:18.983Z,27.40
2018-08-11T13:22:47.652Z,27.30
2018-08-11T13:25:15.984Z,27.30
2018-08-11T13:27:45.966Z,27.50
2018-08-11T13:30:14.190Z,27.60
2018-08-11T13:32:42.747Z,27.40
2018-08-11T13:35:11.035Z,27.40
2018-08-11T13:37:39.295Z,27.70
2018-08-11T13:40:07.652Z,27.90
2018-08-11T13:42:36.683Z,27.40
2018-08-11T13:45:04.993Z,27.50
2018-08-11T13:47:33.237Z,27.50
2018-08-11T13:50:01.509Z,27.70
2018-08-11T13:52:29.772Z,27.70
2018-08-11T13:54:58.027Z,27.40
2018-08-11T13:57:26.296Z,27.10
2018-08-11T13:59:54.573Z,27.10
2018-08-11T14:02:23.875Z,27.00
2018-08-11T14:04:52.126Z,26.90
2018-08-11T14:07:21.160Z,26.70
2018-08-11T14:09:49.438Z,26.70
2018-08-11T14:12:17.709Z,26.70
2018-08-11T14:14:46.032Z,26.70
2018-08-11T14:17:14.262Z,26.60
2018-08-11T14:19:42.760Z,26.40
2018-08-11T14:22:11.033Z,26.50
2018-08-11T14:24:39.285Z,26.90
2018-08-11T14:27:08.354Z,27.40
2018-08-11T14:29:39.017Z,27.50
2018-08-11T14:32:07.279Z,27.50
2018-08-11T14:34:35.654Z,27.40
2018-08-11T14:37:03.829Z,27.30
2018-08-11T14:39:32.075Z,27.40
2018-08-11T14:42:00.370Z,27.40
2018-08-11T14:44:28.821Z,27.00
2018-08-11T14:46:57.297Z,27.00
2018-08-11T14:49:25.578Z,27.00
2018-08-11T14:51:53.853Z,26.80
2018-08-11T14:54:22.125Z,26.60
2018-08-11T14:56:50.373Z,26.90
2018-08-11T14:59:18.677Z,27.10
2018-08-11T15:01:47.221Z,27.00
2018-08-11T15:04:15.438Z,27.00
2018-08-11T15:06:44.477Z,27.20
2018-08-11T15:09:12.769Z,27.20
2018-08-11T15:11:41.060Z,26.80
2018-08-11T15:14:09.317Z,26.70
2018-08-11T15:16:37.945Z,26.80
2018-08-11T15:19:06.978Z,26.50
2018-08-11T15:21:35.226Z,26.50
2018-08-11T15:24:03.640Z,26.60
2018-08-11T15:26:31.891Z,26.40
2018-08-11T15:29:00.145Z,26.50
2018-08-11T15:31:29.170Z,26.50
2018-08-11T15:33:57.427Z,26.40
2018-08-11T15:36:25.753Z,26.70
2018-08-11T15:38:54.004Z,26.90
2018-08-11T15:41:22.266Z,27.00
2018-08-11T15:43:50.525Z,27.20
2018-08-11T15:46:18.777Z,27.40
2018-08-11T15:48:47.807Z,27.80
2018-08-11T15:51:16.046Z,27.70
2018-08-11T15:53:45.324Z,28.00
2018-08-11T15:56:13.583Z,27.90
2018-08-11T15:58:41.876Z,28.10
2018-08-11T16:01:10.478Z,28.20
2018-08-11T16:03:38.736Z,28.20
2018-08-11T16:06:06.980Z,28.10
2018-08-11T16:08:35.258Z,28.00
2018-08-11T16:11:03.505Z,28.10
2018-08-11T16:13:31.775Z,28.10
2018-08-11T16:16:00.861Z,28.20
2018-08-11T16:18:29.085Z,28.30
2018-08-11T16:20:57.501Z,28.30
2018-08-11T16:23:26.526Z,28.20
2018-08-11T16:25:54.775Z,28.20
2018-08-11T16:28:23.951Z,28.10
2018-08-11T16:30:52.214Z,28.10
2018-08-11T16:33:21.978Z,28.30
2018-08-11T16:35:50.590Z,28.30
2018-08-11T16:38:18.824Z,28.30
2018-08-11T16:40:47.067Z,28.10
2018-08-11T16:43:15.330Z,28.00
2018-08-11T16:45:43.601Z,27.90
2018-08-11T16:48:11.979Z,27.80
2018-08-11T16:50:40.247Z,27.80
2018-08-11T16:53:08.490Z,27.80
2018-08-11T16:55:36.752Z,27.70
2018-08-11T16:58:05.042Z,27.70
2018-08-11T17:00:33.302Z,27.80
2018-08-11T17:03:01.584Z,27.80
2018-08-11T17:05:29.838Z,27.80
2018-08-11T17:07:58.920Z,27.90
2018-08-11T17:10:27.134Z,27.90
2018-08-11T17:12:55.782Z,28.00
2018-08-11T17:15:25.531Z,27.80
2018-08-11T17:17:53.794Z,27.80
2018-08-11T17:20:22.213Z,27.70
2018-08-11T17:22:50.466Z,27.60
2018-08-11T17:25:19.007Z,27.50
2018-08-11T17:27:48.044Z,27.60
2018-08-11T17:30:16.284Z,27.70
2018-08-11T17:32:45.304Z,27.60
2018-08-11T17:35:13.561Z,27.50
2018-08-11T17:37:42.685Z,27.50
2018-08-11T17:40:10.927Z,27.50
2018-08-11T17:42:39.269Z,27.40
2018-08-11T17:45:07.522Z,27.40
2018-08-11T17:47:35.779Z,27.40
2018-08-11T17:50:04.042Z,27.30
2018-08-11T17:52:32.298Z,27.20
2018-08-11T17:55:01.330Z,27.10
2018-08-11T17:57:29.587Z,27.10
2018-08-11T17:59:57.842Z,27.00
2018-08-11T18:02:26.847Z,26.90
2018-08-11T18:04:55.106Z,26.90
2018-08-11T18:07:24.128Z,26.70
2018-08-11T18:09:52.777Z,26.70
2018-08-11T18:12:21.791Z,26.60
2018-08-11T18:14:50.042Z,26.50
2018-08-11T18:17:19.105Z,26.40
2018-08-11T18:19:47.470Z,26.40
2018-08-11T18:22:16.245Z,26.30
2018-08-11T18:24:44.507Z,26.20
2018-08-11T18:27:12.760Z,26.10
2018-08-11T18:29:41.786Z,26.10
2018-08-11T18:32:10.038Z,26.10
2018-08-11T18:34:38.331Z,26.00
2018-08-11T18:37:06.579Z,25.90
2018-08-11T18:39:34.834Z,26.00
2018-08-11T18:42:03.951Z,26.00
2018-08-11T18:44:32.208Z,26.00
2018-08-11T18:47:01.249Z,25.90
2018-08-11T18:49:29.749Z,25.80
2018-08-11T18:51:58.039Z,25.80
2018-08-11T18:54:27.042Z,25.60
2018-08-11T18:56:55.805Z,25.50
2018-08-11T18:59:24.065Z,25.40
2018-08-11T19:01:52.302Z,25.30
2018-08-11T19:04:20.587Z,25.20
2018-08-11T19:06:48.838Z,25.10
2018-08-11T19:09:17.848Z,25.10
2018-08-11T19:11:46.114Z,25.00
2018-08-11T19:14:15.136Z,24.80
2018-08-11T19:16:43.414Z,24.70
2018-08-11T19:19:11.663Z,24.60
2018-08-11T19:21:39.931Z,24.60
2018-08-11T19:24:09.012Z,24.40
2018-08-11T19:26:38.043Z,24.30
2018-08-11T19:29:06.309Z,24.30
2018-08-11T19:31:34.573Z,24.20
2018-08-11T19:34:02.816Z,24.10
2018-08-11T19:36:31.070Z,23.90
2018-08-11T19:38:59.584Z,23.80
2018-08-11T19:41:28.613Z,23.50
2018-08-11T19:43:56.854Z,23.50
2018-08-11T19:46:26.019Z,23.30
2018-08-11T19:48:54.198Z,23.30
2018-08-11T19:51:22.454Z,23.30
2018-08-11T19:53:51.506Z,23.20
2018-08-11T19:56:20.546Z,23.00
2018-08-11T19:58:49.606Z,22.90
2018-08-11T20:01:18.182Z,22.90
2018-08-11T20:03:46.448Z,22.80
2018-08-11T20:06:15.464Z,22.70
2018-08-11T20:08:43.754Z,22.70
2018-08-11T20:11:12.040Z,22.70
2018-08-11T20:13:40.300Z,22.70
2018-08-11T20:16:08.537Z,22.60
2018-08-11T20:18:37.574Z,22.30
2018-08-11T20:21:05.853Z,22.30
2018-08-11T20:23:34.086Z,22.20
2018-08-11T20:26:02.337Z,22.10
2018-08-11T20:28:31.599Z,22.10
2018-08-11T20:30:59.839Z,22.00
2018-08-11T20:33:28.131Z,21.80
2018-08-11T20:35:56.380Z,21.80
2018-08-11T20:38:25.410Z,21.70
2018-08-11T20:40:53.968Z,21.70
2018-08-11T20:43:22.945Z,21.60
2018-08-11T20:45:51.951Z,21.70
2018-08-11T20:48:20.258Z,21.70
2018-08-11T20:50:48.501Z,21.60
2018-08-11T20:53:16.768Z,21.50
2018-08-11T20:55:45.040Z,21.40
2018-08-11T20:58:14.039Z,21.40
2018-08-11T21:00:42.550Z,21.30
2018-08-11T21:03:10.875Z,21.30
2018-08-11T21:05:39.899Z,21.20
2018-08-11T21:08:08.158Z,21.20
2018-08-11T21:10:36.421Z,21.20
2018-08-11T21:13:05.430Z,21.10
2018-08-11T21:15:34.076Z,21.00
2018-08-11T21:18:02.235Z,21.10
2018-08-11T21:20:31.228Z,21.10
2018-08-11T21:22:59.641Z,21.10
2018-08-11T21:25:28.657Z,20.90
2018-08-11T21:27:56.961Z,20.90
2018-08-11T21:30:25.991Z,20.80
2018-08-11T21:32:54.240Z,20.80
2018-08-11T21:35:22.499Z,20.70
2018-08-11T21:37:50.776Z,20.70
2018-08-11T21:40:19.019Z,20.60
2018-08-11T21:42:47.283Z,20.50
2018-08-11T21:45:16.289Z,20.40
2018-08-11T21:47:44.695Z,20.40
2018-08-11T21:50:12.938Z,20.30
2018-08-11T21:52:41.330Z,20.30
2018-08-11T21:55:09.602Z,20.30
2018-08-11T21:57:37.868Z,20.20
2018-08-11T22:00:06.116Z,20.10
2018-08-11T22:02:35.131Z,20.00
2018-08-11T22:05:03.407Z,20.00
2018-08-11T22:07:31.642Z,20.00
2018-08-11T22:09:59.908Z,20.00
2018-08-11T22:12:28.139Z,19.90
2018-08-11T22:14:56.402Z,19.80
2018-08-11T22:17:25.410Z,19.80
2018-08-11T22:19:53.716Z,19.80
2018-08-11T22:22:22.726Z,19.70
2018-08-11T22:24:51.257Z,19.70
2018-08-11T22:27:19.501Z,19.70
2018-08-11T22:29:48.519Z,19.60
2018-08-11T22:32:16.770Z,19.60
2018-08-11T22:34:45.789Z,19.60
2018-08-11T22:37:14.050Z,19.60
2018-08-11T22:39:43.059Z,19.60
2018-08-11T22:42:11.303Z,19.50
2018-08-11T22:44:40.335Z,19.60
2018-08-11T22:47:08.607Z,19.60
2018-08-11T22:49:36.850Z,19.50
2018-08-11T22:52:05.853Z,19.40
2018-08-11T22:54:34.113Z,19.40
2018-08-11T22:57:03.139Z,19.10
2018-08-11T22:59:31.386Z,19.10
2018-08-11T23:02:00.416Z,19.10
2018-08-11T23:04:29.014Z,19.10
2018-08-11T23:06:57.282Z,19.00
2018-08-11T23:09:25.539Z,19.10
2018-08-11T23:11:53.793Z,19.00
2018-08-11T23:14:22.813Z,18.90
2018-08-11T23:16:52.038Z,18.80
2018-08-11T23:19:20.290Z,18.80
2018-08-11T23:21:48.573Z,18.80
2018-08-11T23:24:16.842Z,18.60
2018-08-11T23:26:45.120Z,18.50
2018-08-11T23:29:13.377Z,18.50
2018-08-11T23:31:41.623Z,18.50
2018-08-11T23:34:10.876Z,18.70
2018-08-11T23:36:39.126Z,18.60
2018-08-11T23:39:07.364Z,18.70
2018-08-11T23:41:36.393Z,18.80
2018-08-11T23:44:04.652Z,18.70
2018-08-11T23:46:32.902Z,18.70
2018-08-11T23:49:01.938Z,18.30
2018-08-11T23:51:30.196Z,18.30
2018-08-11T23:53:58.486Z,18.20
2018-08-11T23:56:26.939Z,18.20
2018-08-11T23:58:55.158Z,18.10
